Time;durP1;ratioP1;P1;durP2;ratioP2;P2;SDS_P1;SDS_P2;PMS_P1;PMS_P2;Temp;Humidity;BMP_temperature;BMP_pressure;BME280_temperature;BME280_humidity;BME280_pressure;Samples;Min_cycle;Max_cycle;Signal;HPM_P1;HPM_P2
2021/08/20 00:00:01;;;;;;;2.13;1.70;;;;;;;18.40;nan;100492.41;5032658;28;20041;-76
2021/08/20 00:02:29;;;;;;;2.47;1.95;;;;;;;18.40;nan;100492.41;5032051;28;20033;-77
2021/08/20 00:04:54;;;;;;;2.70;2.10;;;;;;;18.36;nan;100491.16;5032119;28;20049;-77
2021/08/20 00:07:21;;;;;;;3.45;2.60;;;;;;;18.30;nan;100488.47;5032118;28;20113;-76
2021/08/20 00:09:46;;;;;;;2.75;2.10;;;;;;;18.30;nan;100489.28;5014714;28;20025;-77
2021/08/20 00:12:11;;;;;;;2.70;2.05;;;;;;;18.31;nan;100495.50;5013799;28;20478;-77
2021/08/20 00:14:37;;;;;;;2.60;2.10;;;;;;;18.29;nan;100495.69;5031235;28;20516;-76
2021/08/20 00:17:04;;;;;;;3.70;2.70;;;;;;;18.29;nan;100493.00;5032371;28;20045;-77
2021/08/20 00:19:30;;;;;;;2.90;2.33;;;;;;;18.29;nan;100495.69;5031772;28;20038;-76
2021/08/20 00:21:56;;;;;;;3.20;2.10;;;;;;;18.28;nan;100488.66;5032042;28;20037;-76
2021/08/20 00:24:21;;;;;;;2.88;2.13;;;;;;;18.27;nan;100492.38;5031234;28;20548;-77
2021/08/20 00:26:46;;;;;;;4.07;2.50;;;;;;;18.31;nan;100487.47;5031332;28;20432;-77
2021/08/20 00:29:12;;;;;;;5.15;2.42;;;;;;;18.32;nan;100489.09;5031656;28;20029;-76
2021/08/20 00:31:37;;;;;;;2.88;2.10;;;;;;;18.35;nan;100492.22;5031574;28;20375;-77
2021/08/20 00:34:03;;;;;;;2.65;1.80;;;;;;;18.37;nan;100495.47;5014120;28;20405;-76
2021/08/20 00:36:28;;;;;;;2.90;2.00;;;;;;;18.34;nan;100487.88;5031792;28;20099;-76
2021/08/20 00:38:53;;;;;;;3.63;2.70;;;;;;;18.37;nan;100490.13;5013758;28;20041;-76
2021/08/20 00:41:19;;;;;;;3.58;2.13;;;;;;;18.39;nan;100490.75;5031884;28;20117;-76
2021/08/20 00:43:44;;;;;;;3.13;2.10;;;;;;;18.39;nan;100484.56;5031590;28;20511;-77
2021/08/20 00:46:10;;;;;;;2.35;1.85;;;;;;;18.38;nan;100483.75;5013394;28;20077;-76
2021/08/20 00:48:36;;;;;;;3.28;2.35;;;;;;;18.32;nan;100478.41;5031081;28;20033;-76
2021/08/20 00:51:15;;;;;;;3.22;2.30;;;;;;;18.27;nan;100476.31;5032073;28;20034;-76
2021/08/20 00:53:41;;;;;;;3.42;2.30;;;;;;;18.25;nan;100479.19;5013082;28;20042;-76
2021/08/20 00:56:07;;;;;;;4.63;2.53;;;;;;;18.17;nan;100479.41;5031028;28;20398;-76
2021/08/20 00:58:33;;;;;;;3.33;2.50;;;;;;;18.15;nan;100481.44;5030114;28;20461;-76
2021/08/20 01:00:59;;;;;;;3.42;2.60;;;;;;;18.13;nan;100485.34;5032610;28;20049;-76
2021/08/20 01:03:29;;;;;;;2.83;2.22;;;;;;;18.15;nan;100478.78;5031598;28;20402;-76
2021/08/20 01:05:55;;;;;;;3.10;2.20;;;;;;;18.17;nan;100481.25;5031357;28;20048;-76
2021/08/20 01:08:24;;;;;;;3.47;2.10;;;;;;;18.24;nan;100471.38;5030837;28;20069;-76
2021/08/20 01:10:50;;;;;;;3.03;2.00;;;;;;;18.24;nan;100477.56;5031509;28;20390;-76
2021/08/20 01:13:18;;;;;;;2.47;1.85;;;;;;;18.24;nan;100476.75;5030731;28;20061;-76
2021/08/20 01:15:45;;;;;;;3.65;2.08;;;;;;;18.25;nan;100473.84;5030732;28;20048;-76
2021/08/20 01:18:11;;;;;;;3.83;2.30;;;;;;;18.31;nan;100472.22;5030330;28;20532;-76
2021/08/20 01:20:37;;;;;;;3.00;2.20;;;;;;;18.32;nan;100473.03;5013010;28;20441;-76
2021/08/20 01:23:05;;;;;;;2.97;2.05;;;;;;;18.32;nan;100475.72;5031310;28;20300;-76
2021/08/20 01:25:33;;;;;;;3.28;2.30;;;;;;;18.32;nan;100473.84;5030474;28;20077;-75
2021/08/20 01:28:09;;;;;;;3.90;2.53;;;;;;;18.30;nan;100475.09;5030930;28;20096;-76
2021/08/20 01:30:36;;;;;;;3.40;2.50;;;;;;;18.28;nan;100471.78;5030322;28;20053;-76
2021/08/20 01:33:02;;;;;;;2.85;2.30;;;;;;;18.23;nan;100467.03;5012408;28;20040;-76
2021/08/20 01:35:27;;;;;;;4.32;2.33;;;;;;;18.27;nan;100470.97;5012782;28;20033;-76
2021/08/20 01:37:53;;;;;;;4.15;2.80;;;;;;;18.28;nan;100471.78;5030301;28;20328;-76
2021/08/20 01:40:19;;;;;;;3.03;2.05;;;;;;;18.20;nan;100478.16;5012536;28;20038;-76
2021/08/20 01:42:44;;;;;;;3.95;2.60;;;;;;;18.16;nan;100476.91;5030738;28;20042;-76
2021/08/20 01:45:10;;;;;;;3.00;2.35;;;;;;;18.13;nan;100474.66;5012738;28;20112;-76
2021/08/20 01:47:35;;;;;;;3.50;2.42;;;;;;;18.22;nan;100476.13;5030303;28;20502;-76
2021/08/20 01:50:01;;;;;;;4.78;3.00;;;;;;;18.24;nan;100468.72;5030886;28;20463;-76
2021/08/20 01:52:26;;;;;;;4.65;2.85;;;;;;;18.26;nan;100474.69;5029636;28;20048;-76
2021/08/20 01:54:52;;;;;;;2.80;2.17;;;;;;;18.22;nan;100476.13;5030296;28;20037;-76
2021/08/20 01:57:17;;;;;;;3.80;2.38;;;;;;;18.19;nan;100484.56;5030250;28;20034;-76
2021/08/20 01:59:45;;;;;;;3.30;2.40;;;;;;;18.14;nan;100477.13;5012492;28;20041;-75
2021/08/20 02:02:10;;;;;;;3.17;2.58;;;;;;;18.16;nan;100484.94;5029532;28;20440;-76
2021/08/20 02:04:35;;;;;;;2.83;1.98;;;;;;;18.14;nan;100482.50;5030007;28;20116;-76
2021/08/20 02:07:01;;;;;;;3.42;2.40;;;;;;;18.18;nan;100482.91;5029499;28;20494;-76
2021/08/20 02:09:26;;;;;;;3.70;2.45;;;;;;;18.22;nan;100479.59;5011834;28;20034;-76
2021/08/20 02:11:52;;;;;;;3.45;2.30;;;;;;;18.23;nan;100483.09;5030172;28;20127;-76
2021/08/20 02:14:18;;;;;;;2.78;2.22;;;;;;;18.24;nan;100476.75;5011209;28;20029;-76
2021/08/20 02:16:43;;;;;;;3.10;2.17;;;;;;;18.24;nan;100477.56;5014429;28;20037;-76
2021/08/20 02:19:09;;;;;;;3.47;2.65;;;;;;;18.17;nan;100475.91;5012048;28;20037;-76
2021/08/20 02:21:35;;;;;;;3.92;2.67;;;;;;;18.12;nan;100478.38;5030950;28;20124;-76
2021/08/20 02:24:00;;;;;;;4.22;3.05;;;;;;;18.15;nan;100481.44;5029889;28;20387;-76
2021/08/20 02:26:26;;;;;;;3.15;2.28;;;;;;;18.19;nan;100473.84;5029495;28;20056;-76
2021/08/20 02:28:51;;;;;;;2.92;2.22;;;;;;;18.18;nan;100482.91;5029262;28;20034;-76
2021/08/20 02:31:17;;;;;;;3.33;2.45;;;;;;;18.17;nan;100481.25;5030163;28;20029;-76
2021/08/20 02:33:45;;;;;;;3.08;2.30;;;;;;;18.12;nan;100481.03;5018236;28;20104;-76
2021/08/20 02:36:11;;;;;;;3.38;2.70;;;;;;;18.19;nan;100474.66;5025942;28;20037;-76
2021/08/20 02:38:37;;;;;;;3.40;2.50;;;;;;;18.20;nan;100475.50;5029017;28;20037;-76
2021/08/20 02:41:03;;;;;;;3.90;2.63;;;;;;;18.25;nan;100483.72;5029931;28;20056;-76
2021/08/20 02:43:28;;;;;;;4.18;3.30;;;;;;;18.23;nan;100475.91;5011594;28;20034;-76
2021/08/20 02:45:54;;;;;;;2.67;2.00;;;;;;;18.22;nan;100478.78;5029623;28;20037;-76
2021/08/20 02:48:19;;;;;;;4.30;2.80;;;;;;;18.15;nan;100475.28;5009923;28;20037;-76
2021/08/20 02:50:44;;;;;;;3.80;2.88;;;;;;;18.10;nan;100481.25;5005998;28;20526;-76
2021/08/20 02:53:10;;;;;;;2.80;2.20;;;;;;;18.11;nan;100479.38;5029188;28;20383;-76
2021/08/20 02:55:35;;;;;;;3.08;2.50;;;;;;;18.09;nan;100473.41;5029859;28;20116;-76
2021/08/20 02:58:00;;;;;;;4.32;2.70;;;;;;;18.03;nan;100475.84;5028359;28;20060;-76
2021/08/20 03:00:26;;;;;;;2.90;2.40;;;;;;;18.06;nan;100476.50;5028012;28;20041;-76
2021/08/20 03:02:51;;;;;;;3.60;2.30;;;;;;;18.12;nan;100479.19;5029373;28;20042;-76
2021/08/20 03:05:16;;;;;;;3.28;2.60;;;;;;;18.06;nan;100484.50;5029233;28;20040;-76
2021/08/20 03:07:42;;;;;;;3.30;2.60;;;;;;;18.07;nan;100487.00;5028870;28;20489;-76
2021/08/20 03:10:09;;;;;;;2.90;2.00;;;;;;;18.12;nan;100483.72;5028898;28;20030;-76
2021/08/20 03:12:34;;;;;;;2.70;2.10;;;;;;;18.19;nan;100487.22;5029119;28;20108;-76
2021/08/20 03:14:59;;;;;;;2.95;2.33;;;;;;;18.16;nan;100488.47;5029439;28;20085;-76
2021/08/20 03:17:24;;;;;;;3.88;2.75;;;;;;;18.12;nan;100487.22;5029107;28;20037;-76
2021/08/20 03:19:50;;;;;;;3.08;2.28;;;;;;;18.14;nan;100487.84;5010752;28;20225;-76
2021/08/20 03:22:15;;;;;;;3.03;2.10;;;;;;;18.15;nan;100478.78;5030321;28;20030;-76
2021/08/20 03:24:40;;;;;;;3.88;2.30;;;;;;;18.16;nan;100488.47;5033171;28;20060;-76
2021/08/20 03:27:06;;;;;;;3.20;2.50;;;;;;;18.23;nan;100483.09;5033328;28;20040;-76
2021/08/20 03:29:31;;;;;;;3.05;2.28;;;;;;;18.27;nan;100483.53;5014939;28;20502;-76
2021/08/20 03:31:57;;;;;;;3.60;2.63;;;;;;;18.18;nan;100483.72;5015515;28;20042;-76
2021/08/20 03:34:22;;;;;;;3.72;2.50;;;;;;;18.20;nan;100483.53;5010916;28;20459;-76
2021/08/20 03:36:47;;;;;;;2.92;2.10;;;;;;;18.23;nan;100489.31;5026917;28;20061;-76
2021/08/20 03:39:12;;;;;;;2.92;2.08;;;;;;;18.24;nan;100482.09;5033075;28;20042;-76
2021/08/20 03:41:38;;;;;;;2.60;1.90;;;;;;;18.27;nan;100480.88;5032909;28;20483;-76
2021/08/20 03:44:03;;;;;;;2.45;1.63;;;;;;;18.25;nan;100486.41;5014622;28;20128;-76
2021/08/20 03:46:28;;;;;;;2.60;1.93;;;;;;;18.20;nan;100497.72;5033197;28;20490;-76
2021/08/20 03:48:54;;;;;;;3.17;2.30;;;;;;;18.20;nan;100492.38;5032373;28;20490;-76
2021/08/20 03:51:19;;;;;;;2.72;1.90;;;;;;;18.24;nan;100493.63;5032983;28;20041;-76
2021/08/20 03:53:45;;;;;;;6.50;2.65;;;;;;;18.24;nan;100492.81;5032817;28;20065;-76
2021/08/20 03:56:11;;;;;;;4.38;3.40;;;;;;;18.20;nan;100487.00;5014693;28;20143;-76
2021/08/20 03:58:36;;;;;;;3.88;2.80;;;;;;;18.17;nan;100497.31;5014031;28;20116;-76
2021/08/20 04:01:06;;;;;;;5.18;3.00;;;;;;;18.11;nan;100500.78;5032328;28;20124;-76
2021/08/20 04:03:31;;;;;;;2.72;2.13;;;;;;;18.10;nan;100504.50;5032198;28;20033;-76
2021/08/20 04:05:56;;;;;;;3.65;2.70;;;;;;;18.07;nan;100508.41;5032165;28;20042;-76
2021/08/20 04:08:21;;;;;;;2.88;2.20;;;;;;;18.12;nan;100510.47;5031530;28;20037;-76
2021/08/20 04:10:47;;;;;;;2.40;2.10;;;;;;;18.16;nan;100512.56;5033017;28;20090;-75
2021/08/20 04:13:13;;;;;;;2.73;2.00;;;;;;;18.19;nan;100505.97;5032057;28;20057;-77
2021/08/20 04:15:39;;;;;;;3.25;2.30;;;;;;;18.14;nan;100506.56;5028001;28;20053;-77
2021/08/20 04:18:05;;;;;;;3.53;2.47;;;;;;;18.04;nan;100509.63;5031395;28;20029;-76
2021/08/20 04:20:31;;;;;;;4.47;3.03;;;;;;;17.90;nan;100523.16;5013713;28;20099;-76
2021/08/20 04:22:57;;;;;;;3.45;2.78;;;;;;;17.86;nan;100512.03;5032484;28;20040;-76
2021/08/20 04:25:22;;;;;;;3.38;2.55;;;;;;;17.75;nan;100510.72;5031825;28;20514;-76
2021/08/20 04:27:49;;;;;;;3.40;2.50;;;;;;;17.68;nan;100512.53;5031758;28;20061;-76
2021/08/20 04:30:16;;;;;;;3.80;2.97;;;;;;;17.61;nan;100514.34;5031573;28;20401;-76
2021/08/20 04:32:42;;;;;;;3.95;3.00;;;;;;;17.57;nan;100518.47;5032208;28;20037;-76
2021/08/20 04:35:07;;;;;;;3.20;2.58;;;;;;;17.56;nan;100522.97;5013604;28;20088;-76
2021/08/20 04:37:32;;;;;;;4.30;2.60;;;;;;;17.55;nan;100532.03;5032611;28;20083;-76
2021/08/20 04:39:58;;;;;;;6.85;3.40;;;;;;;17.49;nan;100527.44;5032417;28;20076;-77
2021/08/20 04:42:23;;;;;;;3.60;2.55;;;;;;;17.47;nan;100532.19;5013668;28;20045;-76
2021/08/20 04:44:48;;;;;;;4.15;3.05;;;;;;;17.46;nan;100535.06;5032616;28;20034;-76
2021/08/20 04:47:14;;;;;;;3.83;2.65;;;;;;;17.47;nan;100539.34;5032499;28;20277;-76
2021/08/20 04:49:39;;;;;;;3.47;2.60;;;;;;;17.43;nan;100533.59;5020627;28;20038;-76
2021/08/20 04:52:05;;;;;;;3.50;3.00;;;;;;;17.41;nan;100544.47;5019100;28;20116;-76
2021/08/20 04:54:30;;;;;;;3.47;2.55;;;;;;;17.40;nan;100540.16;5032492;28;20030;-77
2021/08/20 04:56:55;;;;;;;4.60;3.00;;;;;;;17.38;nan;100536.03;5032161;28;20030;-77
2021/08/20 04:59:21;;;;;;;3.47;2.72;;;;;;;17.38;nan;100541.38;5014357;28;20044;-76
2021/08/20 05:01:46;;;;;;;3.55;2.75;;;;;;;17.39;nan;100533.16;5032425;28;20042;-76
2021/08/20 05:04:12;;;;;;;3.63;2.30;;;;;;;17.38;nan;100534.19;5032025;28;20633;-76
2021/08/20 05:06:38;;;;;;;3.08;2.47;;;;;;;17.39;nan;100537.69;5032047;28;20794;-77
2021/08/20 05:09:04;;;;;;;5.63;3.70;;;;;;;17.34;nan;100534.78;5032228;28;20528;-76
2021/08/20 05:11:29;;;;;;;3.85;3.30;;;;;;;17.32;nan;100544.81;5032256;28;20033;-77
2021/08/20 05:13:55;;;;;;;4.68;3.10;;;;;;;17.32;nan;100547.50;5032594;28;20037;-76
2021/08/20 05:16:20;;;;;;;4.82;3.10;;;;;;;17.32;nan;100553.66;5031501;28;20040;-77
2021/08/20 05:18:46;;;;;;;4.05;2.90;;;;;;;17.32;nan;100556.34;5031527;28;20033;-76
2021/08/20 05:21:11;;;;;;;4.25;3.63;;;;;;;17.32;nan;100551.00;5031618;28;20061;-76
2021/08/20 05:23:36;;;;;;;4.88;2.80;;;;;;;17.36;nan;100548.78;5031668;28;20558;-76
2021/08/20 05:26:02;;;;;;;4.07;2.97;;;;;;;17.37;nan;100550.41;5030742;28;20402;-77
2021/08/20 05:28:27;;;;;;;3.75;2.63;;;;;;;17.41;nan;100560.50;5026780;28;20121;-76
2021/08/20 05:30:52;;;;;;;2.97;2.20;;;;;;;17.46;nan;100557.25;5032552;28;20116;-77
2021/08/20 05:33:18;;;;;;;2.50;2.00;;;;;;;17.53;nan;100565.31;5014387;28;20033;-76
2021/08/20 05:35:47;;;;;;;2.63;2.30;;;;;;;17.57;nan;100561.25;5031508;28;20099;-76
2021/08/20 05:38:13;;;;;;;4.10;3.10;;;;;;;17.60;nan;100568.88;5030909;28;20211;-76
2021/08/20 05:40:39;;;;;;;2.72;2.13;;;;;;;17.67;nan;100567.06;5014044;28;20498;-76
2021/08/20 05:43:04;;;;;;;3.72;2.70;;;;;;;17.73;nan;100571.63;5032458;28;20036;-76
2021/08/20 05:45:30;;;;;;;2.50;2.10;;;;;;;17.83;nan;100576.63;5013614;28;20041;-77
2021/08/20 05:47:55;;;;;;;3.97;2.85;;;;;;;17.88;nan;100574.19;5031921;28;20044;-75
2021/08/20 05:50:20;;;;;;;3.83;3.13;;;;;;;17.96;nan;100578.53;5031180;28;20039;-76
2021/08/20 05:52:45;;;;;;;3.42;2.72;;;;;;;17.99;nan;100584.31;5013889;28;20268;-76
2021/08/20 05:55:12;;;;;;;3.72;2.28;;;;;;;18.10;nan;100579.44;5013676;28;20069;-77
2021/08/20 05:57:37;;;;;;;3.20;2.30;;;;;;;18.31;nan;100583.84;5032217;28;20036;-76
2021/08/20 06:00:05;;;;;;;3.00;2.33;;;;;;;18.40;nan;100587.94;5031239;28;20034;-76
2021/08/20 06:02:31;;;;;;;2.78;2.28;;;;;;;18.45;nan;100585.53;5031605;28;20029;-76
2021/08/20 06:04:57;;;;;;;2.17;1.80;;;;;;;18.52;nan;100591.72;5014134;28;20117;-77
2021/08/20 06:07:22;;;;;;;2.70;1.95;;;;;;;18.58;nan;100590.88;5031898;28;20033;-76
2021/08/20 06:09:48;;;;;;;2.30;1.80;;;;;;;18.78;nan;100590.97;5013661;28;20041;-76
2021/08/20 06:12:14;;;;;;;2.88;1.88;;;;;;;18.92;nan;100596.34;5030988;28;20071;-76
2021/08/20 06:14:39;;;;;;;3.13;2.42;;;;;;;18.92;nan;100596.34;5031367;28;20112;-77
2021/08/20 06:17:05;;;;;;;5.18;3.63;;;;;;;18.96;nan;100581.50;5017722;28;20036;-77
2021/08/20 06:19:30;;;;;;;4.18;3.08;;;;;;;19.36;nan;100592.22;5013519;28;20033;-76
2021/08/20 06:21:56;;;;;;;4.85;3.15;;;;;;;19.98;nan;100601.59;5031332;28;20037;-77
2021/08/20 06:24:21;;;;;;;6.40;3.75;;;;;;;20.36;nan;100593.56;5030736;28;20042;-77
2021/08/20 06:26:47;;;;;;;5.78;3.60;;;;;;;20.88;nan;100603.41;5031268;28;20074;-77
2021/08/20 06:29:13;;;;;;;4.95;3.72;;;;;;;21.16;nan;100603.00;5030227;28;20030;-77
2021/08/20 06:31:39;;;;;;;4.93;3.72;;;;;;;21.48;nan;100605.66;5031521;28;20033;-76
2021/08/20 06:34:04;;;;;;;5.63;3.40;;;;;;;21.61;nan;100610.88;5020924;28;20044;-76
2021/08/20 06:36:29;;;;;;;4.47;3.60;;;;;;;21.43;nan;100617.06;5011712;28;20044;-76
2021/08/20 06:38:54;;;;;;;4.60;3.95;;;;;;;21.15;nan;100617.50;5030384;28;20037;-77
2021/08/20 06:41:20;;;;;;;4.50;3.47;;;;;;;21.16;nan;100613.75;5031243;28;20033;-77
2021/08/20 06:43:45;;;;;;;4.53;3.42;;;;;;;21.24;nan;100612.63;5031147;28;20032;-77
2021/08/20 06:46:10;;;;;;;3.38;2.90;;;;;;;21.72;nan;100615.53;5013079;28;20541;-76
2021/08/20 06:48:36;;;;;;;3.67;2.47;;;;;;;22.34;nan;100611.94;5026879;28;20040;-77
2021/08/20 06:51:01;;;;;;;4.03;2.50;;;;;;;22.61;nan;100615.91;5013653;28;20564;-77
2021/08/20 06:53:27;;;;;;;4.15;2.60;;;;;;;22.80;nan;100613.97;5030621;28;20295;-77
2021/08/20 06:55:53;;;;;;;2.83;2.10;;;;;;;23.13;nan;100622.66;5030853;28;20063;-76
2021/08/20 06:58:18;;;;;;;4.05;2.65;;;;;;;23.42;nan;100621.72;5030317;28;20087;-77
2021/08/20 07:00:43;;;;;;;5.32;3.15;;;;;;;23.60;nan;100623.50;5012725;28;20128;-77
2021/08/20 07:03:09;;;;;;;3.53;2.70;;;;;;;23.58;nan;100622.09;5031015;28;20041;-77
2021/08/20 07:05:35;;;;;;;4.07;2.43;;;;;;;23.89;nan;100618.19;5030427;28;20110;-76
2021/08/20 07:08:01;;;;;;;4.13;2.50;;;;;;;23.94;nan;100624.53;5030071;28;20540;-76
2021/08/20 07:10:26;;;;;;;4.43;2.70;;;;;;;24.43;nan;100628.72;5013120;28;20092;-77
2021/08/20 07:12:51;;;;;;;3.33;2.40;;;;;;;24.62;nan;100618.56;5031093;28;20507;-77
2021/08/20 07:15:17;;;;;;;3.20;2.20;;;;;;;24.52;nan;100620.00;5030845;28;20052;-77
2021/08/20 07:17:42;;;;;;;2.85;2.10;;;;;;;24.79;nan;100617.53;5029955;28;20034;-77
2021/08/20 07:20:09;;;;;;;3.35;1.92;;;;;;;24.94;nan;100621.56;5011690;28;20040;-77
2021/08/20 07:22:35;;;;;;;2.75;1.88;;;;;;;25.18;nan;100623.06;5033427;28;20033;-76
2021/08/20 07:25:01;;;;;;;2.90;1.90;;;;;;;25.61;nan;100631.56;5015109;28;20059;-77
2021/08/20 07:27:27;;;;;;;2.70;1.95;;;;;;;25.55;nan;100622.56;5033203;28;20044;-77
2021/08/20 07:29:52;;;;;;;3.00;2.10;;;;;;;25.66;nan;100625.41;5033749;28;20112;-76
2021/08/20 07:32:19;;;;;;;2.78;2.13;;;;;;;25.49;nan;100625.44;5032875;28;20461;-76
2021/08/20 07:34:44;;;;;;;2.92;2.10;;;;;;;25.54;nan;100626.31;5032742;28;20087;-77
2021/08/20 07:37:09;;;;;;;3.65;2.35;;;;;;;25.76;nan;100618.22;5033066;28;20038;-77
2021/08/20 07:39:36;;;;;;;3.00;2.40;;;;;;;25.97;nan;100621.25;5032408;28;20382;-76
2021/08/20 07:42:03;;;;;;;2.85;2.13;;;;;;;25.20;nan;100622.84;5031556;28;20033;-77
2021/08/20 07:44:28;;;;;;;3.90;2.40;;;;;;;25.78;nan;100626.94;5031574;28;20128;-77
2021/08/20 07:46:53;;;;;;;2.70;1.92;;;;;;;26.23;nan;100617.75;5033022;28;20139;-77
2021/08/20 07:49:19;;;;;;;3.58;1.90;;;;;;;26.70;nan;100624.53;5031593;28;20037;-74
2021/08/20 07:51:44;;;;;;;2.45;1.75;;;;;;;27.35;nan;100616.41;5030594;28;20516;-74
2021/08/20 07:54:09;;;;;;;3.60;2.33;;;;;;;27.68;nan;100613.34;5011503;28;20037;-74
2021/08/20 07:56:37;;;;;;;2.75;2.00;;;;;;;27.77;nan;100621.81;5029885;28;20284;-75
2021/08/20 07:59:02;;;;;;;4.15;2.47;;;;;;;27.56;nan;100622.78;5029404;28;20036;-74
2021/08/20 08:01:28;;;;;;;3.53;2.10;;;;;;;27.69;nan;100627.72;5029392;28;20030;-75
2021/08/20 08:03:57;;;;;;;3.47;2.05;;;;;;;28.16;nan;100637.78;5025820;28;20037;-75
2021/08/20 08:06:23;;;;;;;2.28;1.60;;;;;;;28.43;nan;100625.88;5019942;28;20457;-74
2021/08/20 08:08:49;;;;;;;3.10;2.05;;;;;;;28.57;nan;100630.56;5029884;28;20033;-75
2021/08/20 08:11:14;;;;;;;4.28;2.60;;;;;;;27.47;nan;100628.69;5014588;28;20632;-75
2021/08/20 08:13:39;;;;;;;3.10;1.85;;;;;;;27.72;nan;100633.47;5032845;28;20107;-74
2021/08/20 08:16:05;;;;;;;2.80;2.10;;;;;;;28.34;nan;100636.47;5028963;28;20125;-74
2021/08/20 08:18:30;;;;;;;2.83;1.70;;;;;;;28.36;nan;100643.28;5032337;28;20303;-75
2021/08/20 08:20:55;;;;;;;3.10;2.50;;;;;;;28.79;nan;100645.84;5032319;28;20055;-75
2021/08/20 08:23:21;;;;;;;4.80;3.00;;;;;;;28.85;nan;100643.94;5014740;28;20284;-76
2021/08/20 08:25:46;;;;;;;3.50;2.40;;;;;;;28.71;nan;100649.09;5032794;28;20379;-75
2021/08/20 08:28:12;;;;;;;2.90;2.00;;;;;;;29.29;nan;100643.41;5031540;28;20034;-75
2021/08/20 08:30:40;;;;;;;3.90;2.53;;;;;;;29.52;nan;100652.94;5036485;28;20033;-75
2021/08/20 08:33:08;;;;;;;3.35;2.10;;;;;;;29.66;nan;100654.00;5025992;28;20057;-75
2021/08/20 08:35:33;;;;;;;2.92;1.63;;;;;;;29.93;nan;100655.56;4995444;28;20351;-75
2021/08/20 08:38:07;;;;;;;3.15;2.05;;;;;;;29.84;nan;100664.34;5027672;28;20053;-74
2021/08/20 08:40:34;;;;;;;3.88;2.45;;;;;;;29.53;nan;100655.41;5031999;28;20505;-74
2021/08/20 08:43:00;;;;;;;3.25;2.30;;;;;;;28.61;nan;100658.06;5026868;28;20122;-76
2021/08/20 08:45:25;;;;;;;2.97;1.77;;;;;;;28.30;nan;100648.97;5026495;28;20136;-75
2021/08/20 08:47:55;;;;;;;2.40;1.83;;;;;;;28.51;nan;100658.06;5031539;28;20414;-75
2021/08/20 08:50:22;;;;;;;2.57;1.80;;;;;;;28.77;nan;100651.56;5029845;28;20029;-75
2021/08/20 08:52:47;;;;;;;2.40;1.73;;;;;;;29.52;nan;100647.47;5031174;28;20286;-75
2021/08/20 08:55:13;;;;;;;3.00;1.90;;;;;;;29.81;nan;100645.78;5013705;28;20112;-74
2021/08/20 08:57:38;;;;;;;2.63;1.90;;;;;;;28.98;nan;100646.13;5031571;28;20527;-75
2021/08/20 09:00:05;;;;;;;2.67;1.85;;;;;;;29.61;nan;100645.84;5031308;28;20125;-75
2021/08/20 09:02:33;;;;;;;3.38;1.90;;;;;;;30.44;nan;100650.75;5032066;28;20034;-75
2021/08/20 09:05:09;;;;;;;3.10;2.28;;;;;;;31.26;nan;100647.41;5031628;28;20529;-75
2021/08/20 09:07:35;;;;;;;2.30;1.70;;;;;;;31.11;nan;100642.09;5031743;28;20040;-75
2021/08/20 09:10:23;;;;;;;3.92;2.03;;;;;;;30.45;nan;100649.63;5031390;28;20104;-75
2021/08/20 09:12:51;;;;;;;3.42;2.15;;;;;;;31.58;nan;100646.03;5031598;28;20046;-74
2021/08/20 09:15:21;;;;;;;2.47;1.88;;;;;;;31.48;nan;100646.97;5029503;28;20065;-75
2021/08/20 09:17:52;;;;;;;3.05;2.08;;;;;;;31.84;nan;100643.03;5011112;28;20034;-76
2021/08/20 09:20:25;;;;;;;2.78;1.58;;;;;;;31.19;nan;100649.66;5013194;28;20037;-75
2021/08/20 09:22:53;;;;;;;1.93;1.50;;;;;;;31.40;nan;100649.53;5023617;28;20397;-75
2021/08/20 09:25:37;;;;;;;1.92;1.45;;;;;;;31.06;nan;100651.16;5011438;28;20048;-76
2021/08/20 09:28:16;;;;;;;2.15;1.50;;;;;;;30.48;nan;100642.78;5022876;28;20038;-75
2021/08/20 09:30:43;;;;;;;3.28;1.85;;;;;;;30.32;nan;100643.97;5017990;28;20441;-76
2021/08/20 09:33:16;;;;;;;3.15;1.70;;;;;;;30.13;nan;100641.03;5037513;28;20664;-75
2021/08/20 09:35:42;;;;;;;2.70;1.60;;;;;;;29.95;nan;100642.50;5023264;28;20045;-75
2021/08/20 09:38:12;;;;;;;1.88;1.42;;;;;;;29.35;nan;100640.44;5030732;28;20033;-75
2021/08/20 09:40:40;;;;;;;2.22;1.65;;;;;;;29.21;nan;100633.91;5031125;28;20052;-75
2021/08/20 09:43:18;;;;;;;2.50;1.90;;;;;;;28.60;nan;100640.09;5023706;28;20099;-75
2021/08/20 09:45:55;;;;;;;2.88;1.88;;;;;;;28.59;nan;100639.28;5031678;28;20485;-74
2021/08/20 09:48:39;;;;;;;2.13;1.70;;;;;;;28.70;nan;100634.69;5030140;28;21650;-75
2021/08/20 09:51:05;;;;;;;3.72;1.98;;;;;;;28.16;nan;100632.34;5023662;28;20022;-75
2021/08/20 09:53:30;;;;;;;2.20;1.67;;;;;;;28.30;nan;100638.09;5028148;28;20107;-75
2021/08/20 09:55:56;;;;;;;3.45;2.20;;;;;;;28.84;nan;100636.84;5013137;28;20025;-75
2021/08/20 09:58:21;;;;;;;2.40;1.65;;;;;;;28.68;nan;100627.88;5017643;28;20104;-74
2021/08/20 10:00:48;;;;;;;2.65;1.70;;;;;;;28.63;nan;100636.84;5027695;28;20128;-75
2021/08/20 10:03:17;;;;;;;2.53;1.65;;;;;;;28.66;nan;100636.31;5026774;28;20270;-75
2021/08/20 10:05:45;;;;;;;3.53;1.80;;;;;;;28.45;nan;100627.25;5026705;28;20099;-75
2021/08/20 10:08:14;;;;;;;2.47;1.73;;;;;;;28.04;nan;100637.19;5023996;28;20398;-74
2021/08/20 10:10:45;;;;;;;2.30;1.80;;;;;;;28.02;nan;100631.19;5026555;28;20067;-74
2021/08/20 10:13:15;;;;;;;2.28;1.65;;;;;;;28.13;nan;100630.97;5019574;28;20045;-75
2021/08/20 10:15:41;;;;;;;4.97;2.67;;;;;;;28.33;nan;100630.22;5024822;28;20045;-74
2021/08/20 10:18:08;;;;;;;2.58;1.70;;;;;;;28.03;nan;100633.66;5025993;28;20037;-74
2021/08/20 10:20:34;;;;;;;2.20;1.67;;;;;;;28.20;nan;100629.88;5026723;28;20053;-75
2021/08/20 10:23:00;;;;;;;2.78;1.75;;;;;;;28.35;nan;100627.22;5026847;28;20041;-75
2021/08/20 10:25:26;;;;;;;4.45;2.55;;;;;;;28.39;nan;100622.91;5026191;28;20041;-75
2021/08/20 10:27:53;;;;;;;3.78;2.53;;;;;;;28.48;nan;100624.00;5026248;28;20042;-75
2021/08/20 10:30:19;;;;;;;2.72;1.95;;;;;;;28.15;nan;100627.97;5025918;28;20181;-75
2021/08/20 10:33:01;;;;;;;3.35;2.33;;;;;;;28.20;nan;100629.88;5003654;28;20581;-75
2021/08/20 10:35:50;;;;;;;3.33;2.10;;;;;;;28.08;nan;100625.53;5023503;28;20548;-75
2021/08/20 10:38:38;;;;;;;3.03;2.30;;;;;;;27.77;nan;100626.41;5026047;28;20467;-75
2021/08/20 10:41:20;;;;;;;2.85;2.30;;;;;;;27.30;nan;100620.72;5008711;28;20053;-75
2021/08/20 10:43:48;;;;;;;2.35;1.70;;;;;;;27.05;nan;100624.03;5026668;28;20517;-75
2021/08/20 10:46:32;;;;;;;2.63;1.42;;;;;;;26.80;nan;100624.63;5024777;28;20541;-75
2021/08/20 10:49:12;;;;;;;3.05;1.70;;;;;;;26.53;nan;100615.63;5023666;28;20043;-75
2021/08/20 10:51:49;;;;;;;2.40;1.60;;;;;;;26.31;nan;100612.97;5027710;28;20124;-74
2021/08/20 10:54:42;;;;;;;3.47;2.20;;;;;;;26.07;nan;100615.94;5026115;28;20038;-75
2021/08/20 10:57:10;;;;;;;5.22;2.50;;;;;;;25.98;nan;100612.03;5023202;28;20111;-74
2021/08/20 10:59:35;;;;;;;2.95;1.70;;;;;;;26.00;nan;100610.72;5025995;28;20061;-75
2021/08/20 11:02:18;;;;;;;3.13;1.92;;;;;;;26.01;nan;100619.69;5026070;28;20512;-74
2021/08/20 11:05:11;;;;;;;3.03;2.10;;;;;;;25.93;nan;100618.19;5025749;28;20514;-74
2021/08/20 11:07:36;;;;;;;2.80;1.88;;;;;;;25.65;nan;100613.75;5024990;28;20041;-75
2021/08/20 11:10:07;;;;;;;2.63;2.03;;;;;;;25.46;nan;100610.50;5023883;28;20446;-75
2021/08/20 11:12:39;;;;;;;3.25;1.90;;;;;;;25.61;nan;100604.50;5024928;28;20041;-75
2021/08/20 11:15:17;;;;;;;2.33;1.90;;;;;;;25.57;nan;100612.28;5007502;28;20032;-75
2021/08/20 11:17:54;;;;;;;2.58;1.90;;;;;;;25.55;nan;100609.03;5008003;28;20052;-74
2021/08/20 11:20:29;;;;;;;2.70;1.60;;;;;;;25.62;nan;100606.13;5016647;28;20079;-74
2021/08/20 11:23:09;;;;;;;2.70;2.03;;;;;;;26.13;nan;100608.72;5024879;28;20381;-75
2021/08/20 11:25:35;;;;;;;2.53;2.00;;;;;;;25.85;nan;100608.59;5016826;28;20045;-75
2021/08/20 11:28:03;;;;;;;2.72;1.95;;;;;;;25.72;nan;100605.44;5024081;28;20068;-74
2021/08/20 11:30:31;;;;;;;4.63;2.10;;;;;;;25.79;nan;100611.50;5020527;28;20041;-75
2021/08/20 11:33:13;;;;;;;2.50;1.80;;;;;;;25.75;nan;100610.38;5001532;28;20036;-75
2021/08/20 11:35:40;;;;;;;3.38;1.67;;;;;;;26.04;nan;100609.13;5019981;28;20029;-75
2021/08/20 11:38:06;;;;;;;3.28;1.77;;;;;;;26.11;nan;100614.38;5024971;28;20032;-75
2021/08/20 11:40:33;;;;;;;2.75;2.00;;;;;;;26.11;nan;100605.44;5025130;28;20049;-75